Select Airport:
Chesapeake Regional Airport
Last updated: 4 minutes ago
Flight conditions: IFR
Visibility: 7.0 statute miles
Sky Conditions:
   Overcast at 800 feet
Weather conditions: rain
Wind From: 90°
Wind speed: 8 knots (9.2 mph)
Temperature: 17.8°C (64.04°F)
Dew Point: 17.2°C (62.96°F)
Altimiter setting: 29.84 in-hg
WX phone: 1-757-204-4290
WX freq: 123.675 MHz
Runway 5
   Crosswind component: 5.14 knots (5.91 mph)
   Headwind component: 6.13 knots (7.05 mph)
KCPK 201055Z AUTO 09008KT 7SM RA OVC008 18/17 A2984 RMK AO2 T01780172
FOR REFERENCE USE ONLY, DATA MAY NOT BE CURRENT.
ALWAYS CHECK FOR UP TO DATE INFORMATION.